Airfield :







YOU CAN JOIN US ON...

 
LOGIN :

Register | Disclaimer

   EN    FR    IT 

 









Legend :    VFR   Marginal VFR   IFR   Intensive IFR   Very Intensive IFR
Visi :
Ceiling :
>= 8 km
>= 3000ft
5 to 8 km
1000 to 3000 ft
1500m to 5 km
500 to 1000 ft
800 to 1500m
200 to 500 ft
< 800m
< 200 ft
Symbols :   Thunderstorms  Fog  Heavy snow  Heavy precipitations  Wind > 20 kt







- Airport Elevation : 68 ft
- IATA code : YFC


CYFC - Fredericton

CURRENT METAR :
  • 202311Z AUTO VRB02KT 9SM -RA FEW035 OVC085 18/16 A2964 RMK SLP038 DENSITY ALT 700FT

EXPIRED METARs :
  • 202220Z AUTO 13002KT 9SM BKN100 18/15 A2965 RMK SLP043 DENSITY ALT 700FT
  • 202200Z AUTO 16003KT 9SM -RA SCT100 BKN120 18/16 A2966 RMK SLP045 DENSITY ALT 600FT
  • 202125Z AUTO 18005KT 9SM -RA FEW035 OVC099 18/16 A2967 RMK SLP050 DENSITY ALT 600FT
  • 202117Z AUTO 19004KT 9SM OVC100 18/16 A2968 RMK SLP051 DENSITY ALT 600FT
  • 202100Z AUTO 20004KT 9SM -RA FEW065 OVC099 18/16 A2969 RMK SLP054 DENSITY ALT 600FT

TAF TAF CYFC
Valid from the 20 at 18:00 until the 21 at 06:00 UTC


201738Z 2018/2106 19012KT P6SM OVC025
TEMPO 2018/2101 OVC020
FM210100 VRB03KT P6SM OVC030
TEMPO 2101/2104 5SM -RA BR OVC020
FM210400 06008KT 2SM RA BR OVC006
PROB30 2104/2106 3/4SM +RA BR OVC003 RMK FCST BASED ON AUTO OBS. NXT FCST BY 210000Z
CZQM FIR / North America



MET'MAP, your aeronautical weather chart ! - Copyright ORBIFLY December 2007 - Disclaimer

ORBIFLY MET'MAP TEAM :

Programming & Development : Alexandra Zaïnal
Concept & Development : Baudouin d'Aumeries
Co-Development & Prog : Marc-Olivier Méhu
Technical & hardware support : Manuel Goepfert

Contact : metmap@orbifly.com




SOURCES & CREDITS :

   NOAA